sensor_id;sensor_type;location;lat;lon;timestamp;temperature;humidity
16655;DHT22;8441;51.344;7.022;2022-09-09T00:00:56;14.80;99.90
16655;DHT22;8441;51.344;7.022;2022-09-09T00:03:27;14.70;99.90
16655;DHT22;8441;51.344;7.022;2022-09-09T00:06:02;14.70;99.90
16655;DHT22;8441;51.344;7.022;2022-09-09T00:08:38;14.70;99.90
16655;DHT22;8441;51.344;7.022;2022-09-09T00:11:12;14.70;99.90
16655;DHT22;8441;51.344;7.022;2022-09-09T00:13:46;14.80;99.90
16655;DHT22;8441;51.344;7.022;2022-09-09T00:16:17;14.80;99.90
16655;DHT22;8441;51.344;7.022;2022-09-09T00:18:53;14.70;99.90
16655;DHT22;8441;51.344;7.022;2022-09-09T00:21:27;14.70;99.90
16655;DHT22;8441;51.344;7.022;2022-09-09T00:23:55;14.70;99.90
16655;DHT22;8441;51.344;7.022;2022-09-09T00:26:30;14.60;99.90
16655;DHT22;8441;51.344;7.022;2022-09-09T00:29:05;14.60;99.90
16655;DHT22;8441;51.344;7.022;2022-09-09T00:31:36;14.60;99.90
16655;DHT22;8441;51.344;7.022;2022-09-09T00:34:11;14.50;99.90
16655;DHT22;8441;51.344;7.022;2022-09-09T00:36:39;14.50;99.90
16655;DHT22;8441;51.344;7.022;2022-09-09T00:39:09;14.50;99.90
16655;DHT22;8441;51.344;7.022;2022-09-09T00:41:47;14.40;99.90
16655;DHT22;8441;51.344;7.022;2022-09-09T00:44:27;14.40;99.90
16655;DHT22;8441;51.344;7.022;2022-09-09T00:47:04;14.30;99.90
16655;DHT22;8441;51.344;7.022;2022-09-09T00:49:39;14.30;99.90
16655;DHT22;8441;51.344;7.022;2022-09-09T00:52:23;14.20;99.90
16655;DHT22;8441;51.344;7.022;2022-09-09T00:54:57;14.30;99.90
16655;DHT22;8441;51.344;7.022;2022-09-09T00:57:29;14.20;99.90
16655;DHT22;8441;51.344;7.022;2022-09-09T01:00:16;14.20;99.90
16655;DHT22;8441;51.344;7.022;2022-09-09T01:02:53;14.30;99.90
16655;DHT22;8441;51.344;7.022;2022-09-09T01:05:30;14.30;99.90
16655;DHT22;8441;51.344;7.022;2022-09-09T01:08:02;14.30;99.90
16655;DHT22;8441;51.344;7.022;2022-09-09T01:10:41;14.40;99.90
16655;DHT22;8441;51.344;7.022;2022-09-09T01:13:17;14.50;99.90
16655;DHT22;8441;51.344;7.022;2022-09-09T01:15:48;14.50;99.90
16655;DHT22;8441;51.344;7.022;2022-09-09T01:18:21;14.60;99.90
16655;DHT22;8441;51.344;7.022;2022-09-09T01:21:01;14.70;99.90
16655;DHT22;8441;51.344;7.022;2022-09-09T01:23:54;14.80;99.90
16655;DHT22;8441;51.344;7.022;2022-09-09T01:26:28;14.90;99.90
16655;DHT22;8441;51.344;7.022;2022-09-09T01:28:57;15.00;99.90
16655;DHT22;8441;51.344;7.022;2022-09-09T01:31:28;15.00;99.90
16655;DHT22;8441;51.344;7.022;2022-09-09T01:33:56;15.10;99.90
16655;DHT22;8441;51.344;7.022;2022-09-09T01:36:28;15.10;99.90
16655;DHT22;8441;51.344;7.022;2022-09-09T01:38:57;15.10;99.90
16655;DHT22;8441;51.344;7.022;2022-09-09T01:41:24;15.20;99.90
16655;DHT22;8441;51.344;7.022;2022-09-09T01:43:53;15.10;99.90
16655;DHT22;8441;51.344;7.022;2022-09-09T01:46:22;15.10;99.90
16655;DHT22;8441;51.344;7.022;2022-09-09T01:48:50;15.00;99.90
16655;DHT22;8441;51.344;7.022;2022-09-09T01:51:18;14.90;99.90
16655;DHT22;8441;51.344;7.022;2022-09-09T01:53:46;14.90;99.90
16655;DHT22;8441;51.344;7.022;2022-09-09T01:56:26;14.80;99.90
16655;DHT22;8441;51.344;7.022;2022-09-09T01:59:07;14.60;99.90
16655;DHT22;8441;51.344;7.022;2022-09-09T02:01:47;14.60;99.90
16655;DHT22;8441;51.344;7.022;2022-09-09T02:04:27;14.60;99.90
16655;DHT22;8441;51.344;7.022;2022-09-09T02:06:57;14.60;99.90
16655;DHT22;8441;51.344;7.022;2022-09-09T02:09:26;14.60;99.90
16655;DHT22;8441;51.344;7.022;2022-09-09T02:12:00;14.60;99.90
16655;DHT22;8441;51.344;7.022;2022-09-09T02:14:36;14.60;99.90
16655;DHT22;8441;51.344;7.022;2022-09-09T02:17:08;14.60;99.90
16655;DHT22;8441;51.344;7.022;2022-09-09T02:19:37;14.70;99.90
16655;DHT22;8441;51.344;7.022;2022-09-09T02:22:06;14.70;99.90
16655;DHT22;8441;51.344;7.022;2022-09-09T02:24:36;14.80;99.90
16655;DHT22;8441;51.344;7.022;2022-09-09T02:27:05;14.80;99.90
16655;DHT22;8441;51.344;7.022;2022-09-09T02:29:38;14.90;99.90
16655;DHT22;8441;51.344;7.022;2022-09-09T02:32:11;14.90;99.90
16655;DHT22;8441;51.344;7.022;2022-09-09T02:34:41;15.00;99.90
16655;DHT22;8441;51.344;7.022;2022-09-09T02:37:10;15.00;99.90
16655;DHT22;8441;51.344;7.022;2022-09-09T02:39:39;14.90;99.90
16655;DHT22;8441;51.344;7.022;2022-09-09T02:42:06;15.00;99.90
16655;DHT22;8441;51.344;7.022;2022-09-09T02:44:35;15.00;99.90
16655;DHT22;8441;51.344;7.022;2022-09-09T02:47:21;15.00;99.90
16655;DHT22;8441;51.344;7.022;2022-09-09T02:49:59;15.00;99.90
16655;DHT22;8441;51.344;7.022;2022-09-09T02:52:37;15.00;99.90
16655;DHT22;8441;51.344;7.022;2022-09-09T02:55:12;15.00;99.90
16655;DHT22;8441;51.344;7.022;2022-09-09T02:57:42;15.00;99.90
16655;DHT22;8441;51.344;7.022;2022-09-09T03:00:14;15.00;99.90
16655;DHT22;8441;51.344;7.022;2022-09-09T03:02:41;15.00;99.90
16655;DHT22;8441;51.344;7.022;2022-09-09T03:05:08;15.00;99.90
16655;DHT22;8441;51.344;7.022;2022-09-09T03:07:35;15.00;99.90
16655;DHT22;8441;51.344;7.022;2022-09-09T03:10:03;14.90;99.90
16655;DHT22;8441;51.344;7.022;2022-09-09T03:12:31;14.90;99.90
16655;DHT22;8441;51.344;7.022;2022-09-09T03:14:59;14.80;99.90
16655;DHT22;8441;51.344;7.022;2022-09-09T03:17:27;14.80;99.90
16655;DHT22;8441;51.344;7.022;2022-09-09T03:19:54;14.70;99.90
16655;DHT22;8441;51.344;7.022;2022-09-09T03:22:21;14.80;99.90
16655;DHT22;8441;51.344;7.022;2022-09-09T03:24:48;14.70;99.90
16655;DHT22;8441;51.344;7.022;2022-09-09T03:27:16;14.70;99.90
16655;DHT22;8441;51.344;7.022;2022-09-09T03:29:45;14.70;99.90
16655;DHT22;8441;51.344;7.022;2022-09-09T03:32:12;14.70;99.90
16655;DHT22;8441;51.344;7.022;2022-09-09T03:34:44;14.70;99.90
16655;DHT22;8441;51.344;7.022;2022-09-09T03:37:13;14.80;99.90
16655;DHT22;8441;51.344;7.022;2022-09-09T03:39:39;14.80;99.90
16655;DHT22;8441;51.344;7.022;2022-09-09T03:42:07;14.80;99.90
16655;DHT22;8441;51.344;7.022;2022-09-09T03:44:34;14.80;99.90
16655;DHT22;8441;51.344;7.022;2022-09-09T03:47:01;14.90;99.90
16655;DHT22;8441;51.344;7.022;2022-09-09T03:49:28;14.90;99.90
16655;DHT22;8441;51.344;7.022;2022-09-09T03:51:57;14.90;99.90
16655;DHT22;8441;51.344;7.022;2022-09-09T03:54:24;15.00;99.90
16655;DHT22;8441;51.344;7.022;2022-09-09T03:56:51;15.00;99.90
16655;DHT22;8441;51.344;7.022;2022-09-09T03:59:18;15.00;99.90
16655;DHT22;8441;51.344;7.022;2022-09-09T04:01:46;15.00;99.90
16655;DHT22;8441;51.344;7.022;2022-09-09T04:04:14;15.00;99.90
16655;DHT22;8441;51.344;7.022;2022-09-09T04:06:41;15.00;99.90
16655;DHT22;8441;51.344;7.022;2022-09-09T04:09:09;15.00;99.90
16655;DHT22;8441;51.344;7.022;2022-09-09T04:11:36;15.00;99.90
16655;DHT22;8441;51.344;7.022;2022-09-09T04:14:03;15.00;99.90
16655;DHT22;8441;51.344;7.022;2022-09-09T04:16:31;14.90;99.90
16655;DHT22;8441;51.344;7.022;2022-09-09T04:18:58;14.90;99.90
16655;DHT22;8441;51.344;7.022;2022-09-09T04:21:26;14.80;99.90
16655;DHT22;8441;51.344;7.022;2022-09-09T04:23:54;14.70;99.90
16655;DHT22;8441;51.344;7.022;2022-09-09T04:26:22;14.70;99.90
16655;DHT22;8441;51.344;7.022;2022-09-09T04:28:49;14.60;99.90
16655;DHT22;8441;51.344;7.022;2022-09-09T04:31:18;14.60;99.90
16655;DHT22;8441;51.344;7.022;2022-09-09T04:33:46;14.60;99.90
16655;DHT22;8441;51.344;7.022;2022-09-09T04:36:13;14.50;99.90
16655;DHT22;8441;51.344;7.022;2022-09-09T04:38:40;14.50;99.90
16655;DHT22;8441;51.344;7.022;2022-09-09T04:41:08;14.50;99.90
16655;DHT22;8441;51.344;7.022;2022-09-09T04:43:38;14.60;99.90
16655;DHT22;8441;51.344;7.022;2022-09-09T04:46:06;14.70;99.90
16655;DHT22;8441;51.344;7.022;2022-09-09T04:48:33;14.80;99.90
16655;DHT22;8441;51.344;7.022;2022-09-09T04:51:02;14.80;99.90
16655;DHT22;8441;51.344;7.022;2022-09-09T04:53:30;14.80;99.90
16655;DHT22;8441;51.344;7.022;2022-09-09T04:56:04;14.80;99.90
16655;DHT22;8441;51.344;7.022;2022-09-09T04:58:31;14.90;99.90
16655;DHT22;8441;51.344;7.022;2022-09-09T05:01:08;14.90;99.90
16655;DHT22;8441;51.344;7.022;2022-09-09T05:03:36;14.90;99.90
16655;DHT22;8441;51.344;7.022;2022-09-09T05:06:05;14.90;99.90
16655;DHT22;8441;51.344;7.022;2022-09-09T05:08:32;15.00;99.90
16655;DHT22;8441;51.344;7.022;2022-09-09T05:10:59;15.10;99.90
16655;DHT22;8441;51.344;7.022;2022-09-09T05:13:26;15.00;99.90
16655;DHT22;8441;51.344;7.022;2022-09-09T05:15:53;15.10;99.90
16655;DHT22;8441;51.344;7.022;2022-09-09T05:18:22;15.10;99.90
16655;DHT22;8441;51.344;7.022;2022-09-09T05:20:49;15.10;99.90
16655;DHT22;8441;51.344;7.022;2022-09-09T05:23:16;15.20;99.90
16655;DHT22;8441;51.344;7.022;2022-09-09T05:25:43;15.20;99.90
16655;DHT22;8441;51.344;7.022;2022-09-09T05:28:12;15.20;99.90
16655;DHT22;8441;51.344;7.022;2022-09-09T05:30:39;15.20;99.90
16655;DHT22;8441;51.344;7.022;2022-09-09T05:33:06;15.30;99.90
16655;DHT22;8441;51.344;7.022;2022-09-09T05:35:36;15.30;99.90
16655;DHT22;8441;51.344;7.022;2022-09-09T05:38:03;15.40;99.90
16655;DHT22;8441;51.344;7.022;2022-09-09T05:40:30;15.40;99.90
16655;DHT22;8441;51.344;7.022;2022-09-09T05:43:00;15.40;99.90
16655;DHT22;8441;51.344;7.022;2022-09-09T05:45:28;15.40;99.90
16655;DHT22;8441;51.344;7.022;2022-09-09T05:47:55;15.40;99.90
16655;DHT22;8441;51.344;7.022;2022-09-09T05:50:22;15.50;99.90
16655;DHT22;8441;51.344;7.022;2022-09-09T05:52:54;15.50;99.90
16655;DHT22;8441;51.344;7.022;2022-09-09T05:55:21;15.60;99.90
16655;DHT22;8441;51.344;7.022;2022-09-09T05:57:48;15.60;99.90
16655;DHT22;8441;51.344;7.022;2022-09-09T06:00:17;15.60;99.90
16655;DHT22;8441;51.344;7.022;2022-09-09T06:02:50;15.60;99.90
16655;DHT22;8441;51.344;7.022;2022-09-09T06:05:18;15.60;99.90
16655;DHT22;8441;51.344;7.022;2022-09-09T06:07:45;15.70;99.90
16655;DHT22;8441;51.344;7.022;2022-09-09T06:10:14;15.80;99.90
16655;DHT22;8441;51.344;7.022;2022-09-09T06:12:41;15.80;99.90
16655;DHT22;8441;51.344;7.022;2022-09-09T06:15:09;15.90;99.90
16655;DHT22;8441;51.344;7.022;2022-09-09T06:17:36;16.00;99.90
16655;DHT22;8441;51.344;7.022;2022-09-09T06:20:05;16.00;99.90
16655;DHT22;8441;51.344;7.022;2022-09-09T06:22:34;16.10;99.90
16655;DHT22;8441;51.344;7.022;2022-09-09T06:25:01;16.20;99.90
16655;DHT22;8441;51.344;7.022;2022-09-09T06:27:29;16.20;99.90
16655;DHT22;8441;51.344;7.022;2022-09-09T06:29:57;16.20;99.90
16655;DHT22;8441;51.344;7.022;2022-09-09T06:32:24;16.20;99.90
16655;DHT22;8441;51.344;7.022;2022-09-09T06:34:52;16.30;99.90
16655;DHT22;8441;51.344;7.022;2022-09-09T06:37:19;16.30;99.90
16655;DHT22;8441;51.344;7.022;2022-09-09T06:39:46;16.30;99.90
16655;DHT22;8441;51.344;7.022;2022-09-09T06:42:14;16.40;99.90
16655;DHT22;8441;51.344;7.022;2022-09-09T06:44:42;16.40;99.90
16655;DHT22;8441;51.344;7.022;2022-09-09T06:47:09;16.40;99.90
16655;DHT22;8441;51.344;7.022;2022-09-09T06:49:36;16.50;99.90
16655;DHT22;8441;51.344;7.022;2022-09-09T06:52:04;16.70;99.90
16655;DHT22;8441;51.344;7.022;2022-09-09T06:54:31;16.70;99.90
16655;DHT22;8441;51.344;7.022;2022-09-09T06:56:57;16.90;99.90
16655;DHT22;8441;51.344;7.022;2022-09-09T06:59:26;17.00;99.90
16655;DHT22;8441;51.344;7.022;2022-09-09T07:01:55;17.00;99.90
16655;DHT22;8441;51.344;7.022;2022-09-09T07:04:22;16.90;99.90
16655;DHT22;8441;51.344;7.022;2022-09-09T07:06:49;17.00;99.90
16655;DHT22;8441;51.344;7.022;2022-09-09T07:09:17;17.10;99.90
16655;DHT22;8441;51.344;7.022;2022-09-09T07:11:46;17.20;99.90
16655;DHT22;8441;51.344;7.022;2022-09-09T07:14:14;17.30;99.90
16655;DHT22;8441;51.344;7.022;2022-09-09T07:16:42;17.30;99.90
16655;DHT22;8441;51.344;7.022;2022-09-09T07:19:11;17.40;99.90
16655;DHT22;8441;51.344;7.022;2022-09-09T07:21:39;17.40;99.90
16655;DHT22;8441;51.344;7.022;2022-09-09T07:24:07;17.40;99.90
16655;DHT22;8441;51.344;7.022;2022-09-09T07:26:36;17.30;99.90
16655;DHT22;8441;51.344;7.022;2022-09-09T07:29:03;17.30;99.90
16655;DHT22;8441;51.344;7.022;2022-09-09T07:31:32;17.30;99.90
16655;DHT22;8441;51.344;7.022;2022-09-09T07:34:00;17.20;99.90
16655;DHT22;8441;51.344;7.022;2022-09-09T07:36:30;17.20;99.90
16655;DHT22;8441;51.344;7.022;2022-09-09T07:38:59;17.20;99.90
16655;DHT22;8441;51.344;7.022;2022-09-09T07:41:29;17.20;99.90
16655;DHT22;8441;51.344;7.022;2022-09-09T07:43:57;17.10;99.90
16655;DHT22;8441;51.344;7.022;2022-09-09T07:46:25;17.10;99.90
16655;DHT22;8441;51.344;7.022;2022-09-09T07:48:54;17.20;99.90
16655;DHT22;8441;51.344;7.022;2022-09-09T07:51:23;17.50;99.90
16655;DHT22;8441;51.344;7.022;2022-09-09T07:53:55;17.70;99.90
16655;DHT22;8441;51.344;7.022;2022-09-09T07:56:24;17.90;99.90
16655;DHT22;8441;51.344;7.022;2022-09-09T07:58:53;18.00;99.90
16655;DHT22;8441;51.344;7.022;2022-09-09T08:01:23;18.20;99.90
16655;DHT22;8441;51.344;7.022;2022-09-09T08:03:56;18.20;99.90
16655;DHT22;8441;51.344;7.022;2022-09-09T08:06:25;18.20;99.90
16655;DHT22;8441;51.344;7.022;2022-09-09T08:08:54;18.20;99.90
16655;DHT22;8441;51.344;7.022;2022-09-09T08:11:22;18.20;99.90
16655;DHT22;8441;51.344;7.022;2022-09-09T08:13:51;18.40;99.90
16655;DHT22;8441;51.344;7.022;2022-09-09T08:16:19;18.40;99.90
16655;DHT22;8441;51.344;7.022;2022-09-09T08:18:47;18.40;99.90
16655;DHT22;8441;51.344;7.022;2022-09-09T08:21:16;18.30;99.90
16655;DHT22;8441;51.344;7.022;2022-09-09T08:23:45;18.30;99.90
16655;DHT22;8441;51.344;7.022;2022-09-09T08:26:15;18.30;99.90
16655;DHT22;8441;51.344;7.022;2022-09-09T08:28:43;18.40;99.90
16655;DHT22;8441;51.344;7.022;2022-09-09T08:31:12;18.60;99.90
16655;DHT22;8441;51.344;7.022;2022-09-09T08:33:40;18.80;99.90
16655;DHT22;8441;51.344;7.022;2022-09-09T08:36:10;19.00;99.90
16655;DHT22;8441;51.344;7.022;2022-09-09T08:38:37;19.30;99.90
16655;DHT22;8441;51.344;7.022;2022-09-09T08:41:25;19.40;99.90
16655;DHT22;8441;51.344;7.022;2022-09-09T08:44:02;19.60;99.90
16655;DHT22;8441;51.344;7.022;2022-09-09T08:46:36;19.70;99.90
16655;DHT22;8441;51.344;7.022;2022-09-09T08:49:17;19.80;99.90
16655;DHT22;8441;51.344;7.022;2022-09-09T08:51:48;19.60;99.90
16655;DHT22;8441;51.344;7.022;2022-09-09T08:54:16;19.50;99.90
16655;DHT22;8441;51.344;7.022;2022-09-09T08:56:45;19.30;99.90
16655;DHT22;8441;51.344;7.022;2022-09-09T08:59:17;19.20;99.90
16655;DHT22;8441;51.344;7.022;2022-09-09T09:01:58;19.20;99.90
16655;DHT22;8441;51.344;7.022;2022-09-09T09:04:41;19.10;99.90
16655;DHT22;8441;51.344;7.022;2022-09-09T09:07:21;19.10;99.90
16655;DHT22;8441;51.344;7.022;2022-09-09T09:09:59;19.20;99.90
16655;DHT22;8441;51.344;7.022;2022-09-09T09:12:37;19.30;99.90
16655;DHT22;8441;51.344;7.022;2022-09-09T09:15:14;19.40;99.90
16655;DHT22;8441;51.344;7.022;2022-09-09T09:17:42;19.50;99.90
16655;DHT22;8441;51.344;7.022;2022-09-09T09:20:12;19.70;99.90
16655;DHT22;8441;51.344;7.022;2022-09-09T09:22:47;19.80;99.90
16655;DHT22;8441;51.344;7.022;2022-09-09T09:25:17;19.80;99.90
16655;DHT22;8441;51.344;7.022;2022-09-09T09:27:52;19.90;99.90
16655;DHT22;8441;51.344;7.022;2022-09-09T09:30:26;20.10;99.90
16655;DHT22;8441;51.344;7.022;2022-09-09T09:32:55;20.00;99.90
16655;DHT22;8441;51.344;7.022;2022-09-09T09:35:23;19.90;99.90
16655;DHT22;8441;51.344;7.022;2022-09-09T09:37:50;19.80;99.90
16655;DHT22;8441;51.344;7.022;2022-09-09T09:40:19;19.70;99.90
16655;DHT22;8441;51.344;7.022;2022-09-09T09:42:53;19.50;99.90
16655;DHT22;8441;51.344;7.022;2022-09-09T09:45:29;19.40;99.90
16655;DHT22;8441;51.344;7.022;2022-09-09T09:47:59;19.30;99.90
16655;DHT22;8441;51.344;7.022;2022-09-09T09:50:28;19.30;99.90
16655;DHT22;8441;51.344;7.022;2022-09-09T09:52:56;19.30;99.90
16655;DHT22;8441;51.344;7.022;2022-09-09T09:55:23;19.20;99.90
16655;DHT22;8441;51.344;7.022;2022-09-09T09:57:53;19.10;99.90
16655;DHT22;8441;51.344;7.022;2022-09-09T10:00:21;19.00;99.90
16655;DHT22;8441;51.344;7.022;2022-09-09T10:02:49;18.90;99.90
16655;DHT22;8441;51.344;7.022;2022-09-09T10:05:20;19.00;99.90
16655;DHT22;8441;51.344;7.022;2022-09-09T10:08:02;19.20;99.90
16655;DHT22;8441;51.344;7.022;2022-09-09T10:10:37;19.70;99.90
16655;DHT22;8441;51.344;7.022;2022-09-09T10:13:15;20.00;99.90
16655;DHT22;8441;51.344;7.022;2022-09-09T10:15:52;20.00;99.90
16655;DHT22;8441;51.344;7.022;2022-09-09T10:18:43;20.00;99.90
16655;DHT22;8441;51.344;7.022;2022-09-09T10:21:31;20.20;99.90
16655;DHT22;8441;51.344;7.022;2022-09-09T10:24:20;20.40;99.90
16655;DHT22;8441;51.344;7.022;2022-09-09T10:26:53;20.30;99.90
16655;DHT22;8441;51.344;7.022;2022-09-09T10:29:40;20.30;99.90
16655;DHT22;8441;51.344;7.022;2022-09-09T10:32:35;20.30;99.90
16655;DHT22;8441;51.344;7.022;2022-09-09T10:35:10;20.40;99.90
16655;DHT22;8441;51.344;7.022;2022-09-09T10:37:51;20.60;99.90
16655;DHT22;8441;51.344;7.022;2022-09-09T10:40:28;20.50;99.90
16655;DHT22;8441;51.344;7.022;2022-09-09T10:43:04;20.60;99.90
16655;DHT22;8441;51.344;7.022;2022-09-09T10:45:42;20.70;99.90
16655;DHT22;8441;51.344;7.022;2022-09-09T10:48:24;20.70;99.90
16655;DHT22;8441;51.344;7.022;2022-09-09T10:51:05;20.60;99.90
16655;DHT22;8441;51.344;7.022;2022-09-09T10:53:46;20.70;99.90
16655;DHT22;8441;51.344;7.022;2022-09-09T10:56:16;20.80;99.90
16655;DHT22;8441;51.344;7.022;2022-09-09T10:58:48;21.00;99.90
16655;DHT22;8441;51.344;7.022;2022-09-09T11:01:21;21.00;99.90
16655;DHT22;8441;51.344;7.022;2022-09-09T11:03:54;20.80;99.90
16655;DHT22;8441;51.344;7.022;2022-09-09T11:06:30;20.80;99.90
16655;DHT22;8441;51.344;7.022;2022-09-09T11:09:00;20.90;99.90
16655;DHT22;8441;51.344;7.022;2022-09-09T11:11:32;21.00;99.90
16655;DHT22;8441;51.344;7.022;2022-09-09T11:14:03;21.10;99.90
16655;DHT22;8441;51.344;7.022;2022-09-09T11:16:36;21.20;99.90
16655;DHT22;8441;51.344;7.022;2022-09-09T11:19:13;21.30;99.90
16655;DHT22;8441;51.344;7.022;2022-09-09T11:21:45;21.30;99.90
16655;DHT22;8441;51.344;7.022;2022-09-09T11:24:18;21.10;99.90
16655;DHT22;8441;51.344;7.022;2022-09-09T11:26:51;20.70;99.90
16655;DHT22;8441;51.344;7.022;2022-09-09T11:32:39;20.70;99.90
16655;DHT22;8441;51.344;7.022;2022-09-09T11:35:24;21.00;99.90
16655;DHT22;8441;51.344;7.022;2022-09-09T11:38:14;21.20;99.90
16655;DHT22;8441;51.344;7.022;2022-09-09T11:40:44;21.20;99.90
16655;DHT22;8441;51.344;7.022;2022-09-09T11:43:13;21.20;99.90
16655;DHT22;8441;51.344;7.022;2022-09-09T11:45:42;21.10;99.90
16655;DHT22;8441;51.344;7.022;2022-09-09T11:48:26;20.90;99.90
16655;DHT22;8441;51.344;7.022;2022-09-09T11:50:59;20.70;99.90
16655;DHT22;8441;51.344;7.022;2022-09-09T11:53:27;20.20;99.90
16655;DHT22;8441;51.344;7.022;2022-09-09T11:56:03;20.10;99.90
16655;DHT22;8441;51.344;7.022;2022-09-09T11:58:37;20.20;99.90
16655;DHT22;8441;51.344;7.022;2022-09-09T12:04:13;20.40;99.90
16655;DHT22;8441;51.344;7.022;2022-09-09T12:06:45;20.50;99.90
16655;DHT22;8441;51.344;7.022;2022-09-09T12:09:21;20.50;99.90
16655;DHT22;8441;51.344;7.022;2022-09-09T12:11:50;20.80;99.90
16655;DHT22;8441;51.344;7.022;2022-09-09T12:14:22;20.80;99.90
16655;DHT22;8441;51.344;7.022;2022-09-09T12:16:49;20.90;99.90
16655;DHT22;8441;51.344;7.022;2022-09-09T12:19:20;20.80;99.90
16655;DHT22;8441;51.344;7.022;2022-09-09T12:21:57;20.70;99.90
16655;DHT22;8441;51.344;7.022;2022-09-09T12:24:32;20.50;99.90
16655;DHT22;8441;51.344;7.022;2022-09-09T12:27:09;20.40;99.90
16655;DHT22;8441;51.344;7.022;2022-09-09T12:29:47;20.30;99.90
16655;DHT22;8441;51.344;7.022;2022-09-09T12:32:22;20.20;99.90
16655;DHT22;8441;51.344;7.022;2022-09-09T12:34:53;20.10;99.90
16655;DHT22;8441;51.344;7.022;2022-09-09T12:37:29;20.00;99.90
16655;DHT22;8441;51.344;7.022;2022-09-09T12:39:59;20.00;99.90
16655;DHT22;8441;51.344;7.022;2022-09-09T12:42:28;20.00;99.90
16655;DHT22;8441;51.344;7.022;2022-09-09T12:44:57;19.90;99.90
16655;DHT22;8441;51.344;7.022;2022-09-09T12:47:28;19.80;99.90
16655;DHT22;8441;51.344;7.022;2022-09-09T12:49:57;20.20;99.90
16655;DHT22;8441;51.344;7.022;2022-09-09T12:52:28;20.40;99.90
16655;DHT22;8441;51.344;7.022;2022-09-09T12:54:58;20.40;99.90
16655;DHT22;8441;51.344;7.022;2022-09-09T12:57:32;20.40;99.90
16655;DHT22;8441;51.344;7.022;2022-09-09T13:00:12;20.40;99.90
16655;DHT22;8441;51.344;7.022;2022-09-09T13:02:49;20.30;99.90
16655;DHT22;8441;51.344;7.022;2022-09-09T13:05:21;20.40;99.90
16655;DHT22;8441;51.344;7.022;2022-09-09T13:07:48;20.50;99.90
16655;DHT22;8441;51.344;7.022;2022-09-09T13:10:23;20.80;99.90
16655;DHT22;8441;51.344;7.022;2022-09-09T13:12:52;21.00;99.90
16655;DHT22;8441;51.344;7.022;2022-09-09T13:15:24;21.10;99.90
16655;DHT22;8441;51.344;7.022;2022-09-09T13:17:55;20.90;99.90
16655;DHT22;8441;51.344;7.022;2022-09-09T13:20:25;20.70;99.90
16655;DHT22;8441;51.344;7.022;2022-09-09T13:22:53;20.20;99.90
16655;DHT22;8441;51.344;7.022;2022-09-09T13:25:24;20.10;99.90
16655;DHT22;8441;51.344;7.022;2022-09-09T13:27:54;19.70;99.90
16655;DHT22;8441;51.344;7.022;2022-09-09T13:30:23;19.30;99.90
16655;DHT22;8441;51.344;7.022;2022-09-09T13:33:03;18.60;99.90
16655;DHT22;8441;51.344;7.022;2022-09-09T13:35:32;18.20;99.90
16655;DHT22;8441;51.344;7.022;2022-09-09T13:38:06;18.10;99.90
16655;DHT22;8441;51.344;7.022;2022-09-09T13:40:34;18.20;99.90
16655;DHT22;8441;51.344;7.022;2022-09-09T13:43:02;18.40;99.90
16655;DHT22;8441;51.344;7.022;2022-09-09T13:45:31;18.60;99.90
16655;DHT22;8441;51.344;7.022;2022-09-09T13:48:09;18.90;99.90
16655;DHT22;8441;51.344;7.022;2022-09-09T13:50:37;19.00;99.90
16655;DHT22;8441;51.344;7.022;2022-09-09T13:53:07;19.00;99.90
16655;DHT22;8441;51.344;7.022;2022-09-09T13:55:36;18.90;99.90
16655;DHT22;8441;51.344;7.022;2022-09-09T13:58:04;19.00;99.90
16655;DHT22;8441;51.344;7.022;2022-09-09T14:00:33;19.00;99.90
16655;DHT22;8441;51.344;7.022;2022-09-09T14:03:01;19.00;99.90
16655;DHT22;8441;51.344;7.022;2022-09-09T14:05:29;19.20;99.90
16655;DHT22;8441;51.344;7.022;2022-09-09T14:07:58;19.30;99.90
16655;DHT22;8441;51.344;7.022;2022-09-09T14:10:26;19.30;99.90
16655;DHT22;8441;51.344;7.022;2022-09-09T14:12:53;19.70;99.90
16655;DHT22;8441;51.344;7.022;2022-09-09T14:15:20;19.90;99.90
16655;DHT22;8441;51.344;7.022;2022-09-09T14:17:49;19.80;99.90
16655;DHT22;8441;51.344;7.022;2022-09-09T14:20:17;20.00;99.90
16655;DHT22;8441;51.344;7.022;2022-09-09T14:22:45;20.10;99.90
16655;DHT22;8441;51.344;7.022;2022-09-09T14:25:13;20.10;99.90
16655;DHT22;8441;51.344;7.022;2022-09-09T14:27:40;20.10;99.90
16655;DHT22;8441;51.344;7.022;2022-09-09T14:30:09;20.10;99.90
16655;DHT22;8441;51.344;7.022;2022-09-09T14:32:36;20.10;99.90
16655;DHT22;8441;51.344;7.022;2022-09-09T14:35:04;20.30;99.90
16655;DHT22;8441;51.344;7.022;2022-09-09T14:37:31;20.70;99.90
16655;DHT22;8441;51.344;7.022;2022-09-09T14:39:58;20.70;99.90
16655;DHT22;8441;51.344;7.022;2022-09-09T14:42:26;20.80;99.90
16655;DHT22;8441;51.344;7.022;2022-09-09T14:44:55;20.80;99.90
16655;DHT22;8441;51.344;7.022;2022-09-09T14:47:22;20.70;99.90
16655;DHT22;8441;51.344;7.022;2022-09-09T14:49:49;20.50;99.90
16655;DHT22;8441;51.344;7.022;2022-09-09T14:52:17;20.20;99.90
16655;DHT22;8441;51.344;7.022;2022-09-09T14:54:43;19.70;99.90
16655;DHT22;8441;51.344;7.022;2022-09-09T14:57:10;19.40;99.90
16655;DHT22;8441;51.344;7.022;2022-09-09T14:59:39;19.10;99.90
16655;DHT22;8441;51.344;7.022;2022-09-09T15:02:08;18.50;99.90
16655;DHT22;8441;51.344;7.022;2022-09-09T15:04:35;17.90;99.90
16655;DHT22;8441;51.344;7.022;2022-09-09T15:07:03;17.50;99.90
16655;DHT22;8441;51.344;7.022;2022-09-09T15:09:30;17.10;99.90
16655;DHT22;8441;51.344;7.022;2022-09-09T15:11:57;16.90;99.90
16655;DHT22;8441;51.344;7.022;2022-09-09T15:14:24;16.60;99.90
16655;DHT22;8441;51.344;7.022;2022-09-09T15:16:54;16.30;99.90
16655;DHT22;8441;51.344;7.022;2022-09-09T15:19:21;16.10;99.90
16655;DHT22;8441;51.344;7.022;2022-09-09T15:21:47;16.00;99.90
16655;DHT22;8441;51.344;7.022;2022-09-09T15:24:15;15.90;99.90
16655;DHT22;8441;51.344;7.022;2022-09-09T15:26:42;16.00;99.90
16655;DHT22;8441;51.344;7.022;2022-09-09T15:29:08;16.00;99.90
16655;DHT22;8441;51.344;7.022;2022-09-09T15:31:36;16.00;99.90
16655;DHT22;8441;51.344;7.022;2022-09-09T15:34:06;15.90;99.90
16655;DHT22;8441;51.344;7.022;2022-09-09T15:36:35;15.90;99.90
16655;DHT22;8441;51.344;7.022;2022-09-09T15:39:04;16.00;99.90
16655;DHT22;8441;51.344;7.022;2022-09-09T15:41:32;16.10;99.90
16655;DHT22;8441;51.344;7.022;2022-09-09T15:44:00;16.10;99.90
16655;DHT22;8441;51.344;7.022;2022-09-09T15:46:30;16.20;99.90
16655;DHT22;8441;51.344;7.022;2022-09-09T15:49:02;16.40;99.90
16655;DHT22;8441;51.344;7.022;2022-09-09T15:51:31;16.50;99.90
16655;DHT22;8441;51.344;7.022;2022-09-09T15:53:59;16.70;99.90
16655;DHT22;8441;51.344;7.022;2022-09-09T15:56:27;16.80;99.90
16655;DHT22;8441;51.344;7.022;2022-09-09T15:58:56;17.00;99.90
16655;DHT22;8441;51.344;7.022;2022-09-09T16:01:25;17.00;99.90
16655;DHT22;8441;51.344;7.022;2022-09-09T16:03:53;17.20;99.90
16655;DHT22;8441;51.344;7.022;2022-09-09T16:06:21;17.20;99.90
16655;DHT22;8441;51.344;7.022;2022-09-09T16:08:52;17.30;99.90
16655;DHT22;8441;51.344;7.022;2022-09-09T16:11:21;17.40;99.90
16655;DHT22;8441;51.344;7.022;2022-09-09T16:13:50;17.60;99.90